Time;durP1;ratioP1;P1;durP2;ratioP2;P2;SDS_P1;SDS_P2;PMS_P1;PMS_P2;Temp;Humidity;BMP_temperature;BMP_pressure;BME280_temperature;BME280_humidity;BME280_pressure;Samples;Min_cycle;Max_cycle;Signal;HPM_P1;HPM_P2
2022/04/23 00:02:11;;;;;;;0.10;0.10;;;11.10;99.90;;;;;;5109991;28;20045;-85
2022/04/23 00:04:39;;;;;;;0.00;0.00;;;11.00;99.90;;;;;;5077629;28;20032;-81
2022/04/23 00:07:06;;;;;;;0.10;0.10;;;11.10;99.90;;;;;;5076507;28;20051;-85
2022/04/23 00:09:33;;;;;;;0.10;0.10;;;11.00;99.90;;;;;;5076524;28;20401;-80
2022/04/23 00:12:01;;;;;;;0.30;0.20;;;11.00;99.90;;;;;;5109087;28;20619;-81
2022/04/23 00:14:28;;;;;;;0.10;0.10;;;11.00;99.90;;;;;;5093166;28;20032;-81
2022/04/23 00:16:57;;;;;;;0.10;0.10;;;10.90;99.90;;;;;;5092259;28;20420;-85
2022/04/23 00:19:24;;;;;;;0.10;0.10;;;10.90;99.90;;;;;;5076229;28;20036;-80
2022/04/23 00:21:51;;;;;;;0.10;0.10;;;10.80;99.90;;;;;;5075984;28;20090;-80
2022/04/23 00:24:17;;;;;;;0.20;0.20;;;10.80;99.90;;;;;;5092588;28;20118;-84
2022/04/23 00:26:44;;;;;;;0.70;0.30;;;10.80;99.90;;;;;;5075955;28;20127;-81
2022/04/23 00:29:11;;;;;;;0.10;0.10;;;10.80;99.90;;;;;;5075872;28;20370;-80
2022/04/23 00:31:38;;;;;;;0.10;0.10;;;10.70;99.90;;;;;;5076495;28;20472;-85
2022/04/23 00:34:04;;;;;;;0.20;0.20;;;10.70;99.90;;;;;;5075954;28;20537;-85
2022/04/23 00:36:32;;;;;;;0.20;0.20;;;10.70;99.90;;;;;;5075750;28;20497;-81
2022/04/23 00:38:59;;;;;;;0.10;0.10;;;10.60;99.90;;;;;;5075408;28;20042;-85
2022/04/23 00:41:45;;;;;;;0.10;0.10;;;10.60;99.90;;;;;;5092272;28;20044;-81
2022/04/23 00:44:12;;;;;;;0.10;0.10;;;10.60;99.90;;;;;;5077786;28;20133;-86
2022/04/23 00:46:39;;;;;;;0.10;0.10;;;10.50;99.90;;;;;;5076319;28;20052;-85
2022/04/23 00:49:06;;;;;;;0.10;0.10;;;10.50;99.90;;;;;;5091908;28;20109;-85
2022/04/23 00:51:33;;;;;;;0.10;0.10;;;10.40;99.90;;;;;;5092280;28;20130;-81
2022/04/23 00:54:07;;;;;;;0.10;0.10;;;10.40;99.90;;;;;;5091763;28;20040;-81
2022/04/23 00:56:38;;;;;;;0.40;0.20;;;10.40;99.90;;;;;;5108617;28;20045;-86
2022/04/23 00:59:08;;;;;;;0.10;0.10;;;10.30;99.90;;;;;;5091654;28;20439;-81
2022/04/23 01:01:35;;;;;;;0.10;0.10;;;10.30;99.90;;;;;;5075766;28;20044;-81
2022/04/23 01:04:02;;;;;;;0.15;0.15;;;10.30;99.90;;;;;;5091715;28;20036;-85
2022/04/23 01:06:33;;;;;;;0.10;0.10;;;10.30;99.90;;;;;;5075352;28;20040;-85
2022/04/23 01:09:08;;;;;;;0.10;0.10;;;10.20;99.90;;;;;;5091858;28;20032;-85
2022/04/23 01:11:36;;;;;;;0.10;0.10;;;10.20;99.90;;;;;;5091848;28;20429;-86
2022/04/23 01:14:03;;;;;;;0.10;0.10;;;10.20;99.90;;;;;;5058296;28;20041;-85
2022/04/23 01:16:30;;;;;;;0.10;0.10;;;10.20;99.90;;;;;;5091671;28;20081;-85
2022/04/23 01:18:57;;;;;;;0.10;0.10;;;10.10;99.90;;;;;;5091850;28;20052;-86
2022/04/23 01:21:24;;;;;;;0.10;0.10;;;10.00;99.90;;;;;;5074615;28;20400;-85
2022/04/23 01:23:53;;;;;;;0.20;0.20;;;10.10;99.90;;;;;;5075283;28;20039;-85
2022/04/23 01:26:27;;;;;;;0.20;0.20;;;10.00;99.90;;;;;;5075058;28;20036;-81
2022/04/23 01:28:55;;;;;;;0.10;0.10;;;10.00;99.90;;;;;;5107867;28;20040;-85
2022/04/23 01:31:23;;;;;;;0.10;0.10;;;10.00;99.90;;;;;;5090906;28;20523;-86
2022/04/23 01:33:50;;;;;;;0.10;0.10;;;10.00;99.90;;;;;;5075053;28;20036;-86
2022/04/23 01:36:16;;;;;;;0.13;0.13;;;10.00;99.90;;;;;;5091101;28;20036;-81
2022/04/23 01:38:44;;;;;;;0.10;0.10;;;9.90;99.90;;;;;;5091365;28;20066;-81
2022/04/23 01:41:11;;;;;;;0.10;0.10;;;9.90;99.90;;;;;;5091314;28;20485;-81
2022/04/23 01:43:37;;;;;;;0.10;0.10;;;9.80;99.90;;;;;;5107655;28;20186;-81
2022/04/23 01:46:04;;;;;;;0.20;0.20;;;9.80;99.90;;;;;;5091411;28;20556;-82
2022/04/23 01:48:31;;;;;;;0.10;0.10;;;9.70;99.90;;;;;;5074643;28;20389;-85
2022/04/23 01:50:58;;;;;;;0.10;0.10;;;9.70;99.90;;;;;;5090622;28;20811;-85
2022/04/23 01:53:25;;;;;;;0.20;0.20;;;9.70;99.90;;;;;;5073972;28;20057;-81
2022/04/23 01:55:53;;;;;;;0.10;0.10;;;9.70;99.90;;;;;;5074750;28;20706;-81
2022/04/23 01:58:21;;;;;;;0.10;0.10;;;9.60;99.90;;;;;;5090928;28;20070;-86
2022/04/23 02:00:48;;;;;;;0.10;0.10;;;9.60;99.90;;;;;;5090967;28;20044;-85
2022/04/23 02:03:15;;;;;;;0.10;0.10;;;9.60;99.90;;;;;;5057869;28;20044;-81
2022/04/23 02:05:41;;;;;;;1.88;0.35;;;9.50;99.90;;;;;;5090714;28;20138;-85
2022/04/23 02:08:08;;;;;;;0.22;0.22;;;9.50;99.90;;;;;;5090501;28;20045;-81
2022/04/23 02:10:35;;;;;;;0.10;0.10;;;9.50;99.90;;;;;;5090404;28;20051;-81
2022/04/23 02:13:03;;;;;;;0.10;0.10;;;9.50;99.90;;;;;;5107425;28;20036;-82
2022/04/23 02:15:30;;;;;;;0.47;0.47;;;9.40;99.90;;;;;;5070097;28;20048;-85
2022/04/23 02:17:57;;;;;;;0.10;0.10;;;9.50;99.90;;;;;;5070595;28;20044;-81
2022/04/23 02:20:23;;;;;;;0.10;0.10;;;9.40;99.90;;;;;;5061753;28;20043;-81
2022/04/23 02:22:50;;;;;;;0.10;0.10;;;9.40;99.90;;;;;;5073859;28;20082;-86
2022/04/23 02:25:19;;;;;;;0.68;0.20;;;9.40;99.90;;;;;;5073450;28;20035;-81
2022/04/23 02:27:48;;;;;;;0.10;0.10;;;9.40;99.90;;;;;;5090556;28;20052;-81
2022/04/23 02:30:16;;;;;;;0.10;0.10;;;9.30;99.90;;;;;;5106906;28;20072;-81
2022/04/23 02:32:44;;;;;;;0.10;0.10;;;9.30;99.90;;;;;;5073903;28;20127;-80
2022/04/23 02:35:16;;;;;;;0.10;0.10;;;9.30;99.90;;;;;;5073557;28;20557;-81
2022/04/23 02:37:44;;;;;;;0.10;0.10;;;9.30;99.90;;;;;;5073658;28;20086;-81
2022/04/23 02:40:13;;;;;;;0.10;0.10;;;9.30;99.90;;;;;;5090717;28;20052;-85
2022/04/23 02:42:40;;;;;;;0.10;0.10;;;9.20;99.90;;;;;;5069866;28;20088;-81
2022/04/23 02:45:13;;;;;;;0.10;0.10;;;9.20;99.90;;;;;;5086436;28;20087;-81
2022/04/23 02:47:45;;;;;;;0.10;0.10;;;9.20;99.90;;;;;;5087048;28;20052;-85
2022/04/23 02:50:12;;;;;;;0.10;0.10;;;9.20;99.90;;;;;;5086615;28;20454;-81
2022/04/23 02:52:44;;;;;;;0.10;0.10;;;9.20;99.90;;;;;;5083868;28;20513;-81
2022/04/23 02:55:11;;;;;;;0.10;0.10;;;9.20;99.90;;;;;;5073637;28;20493;-85
2022/04/23 02:57:39;;;;;;;0.10;0.10;;;9.10;99.90;;;;;;5106714;28;20119;-81
2022/04/23 03:00:07;;;;;;;0.10;0.10;;;9.10;99.90;;;;;;5090375;28;20079;-85
2022/04/23 03:02:36;;;;;;;0.10;0.10;;;9.10;99.90;;;;;;5072205;28;20037;-81
2022/04/23 03:05:08;;;;;;;0.10;0.10;;;9.10;99.90;;;;;;5090070;28;20496;-85
2022/04/23 03:07:35;;;;;;;0.10;0.10;;;9.00;99.90;;;;;;5073762;28;20040;-87
2022/04/23 03:10:06;;;;;;;0.10;0.10;;;9.10;99.90;;;;;;5056621;28;20564;-81
2022/04/23 03:12:36;;;;;;;0.13;0.13;;;9.10;99.90;;;;;;5089574;28;20086;-86
2022/04/23 03:15:04;;;;;;;0.10;0.10;;;9.10;99.90;;;;;;5089617;28;20497;-86
2022/04/23 03:17:31;;;;;;;0.10;0.10;;;9.00;99.90;;;;;;5089243;28;20048;-85
2022/04/23 03:19:58;;;;;;;0.25;0.25;;;9.00;99.90;;;;;;5073236;28;20047;-81
2022/04/23 03:22:26;;;;;;;0.10;0.10;;;9.00;99.90;;;;;;5068865;28;20045;-80
2022/04/23 03:24:53;;;;;;;0.10;0.10;;;9.00;99.90;;;;;;5064354;28;20044;-85
2022/04/23 03:27:20;;;;;;;0.10;0.10;;;9.00;99.90;;;;;;5089781;28;20493;-81
2022/04/23 03:29:46;;;;;;;0.10;0.10;;;9.00;99.90;;;;;;5073189;28;20366;-81
2022/04/23 03:32:13;;;;;;;0.10;0.10;;;8.90;99.90;;;;;;5072995;28;20520;-84
2022/04/23 03:34:40;;;;;;;0.20;0.20;;;9.00;99.90;;;;;;5105959;28;20131;-85
2022/04/23 03:37:07;;;;;;;0.15;0.15;;;9.00;99.90;;;;;;5072855;28;20048;-81
2022/04/23 03:39:34;;;;;;;0.10;0.10;;;9.00;99.90;;;;;;5089610;28;20398;-85
2022/04/23 03:42:01;;;;;;;0.10;0.10;;;9.00;99.90;;;;;;5074199;28;20481;-86
2022/04/23 03:44:31;;;;;;;0.10;0.10;;;8.90;99.90;;;;;;5072290;28;20064;-85
2022/04/23 03:47:01;;;;;;;0.10;0.10;;;8.90;99.90;;;;;;5072902;28;20075;-85
2022/04/23 03:49:29;;;;;;;0.20;0.20;;;8.90;99.90;;;;;;5089475;28;20047;-85
2022/04/23 03:51:59;;;;;;;0.10;0.10;;;8.90;99.90;;;;;;5089584;28;20048;-81
2022/04/23 03:54:26;;;;;;;0.10;0.10;;;8.90;99.90;;;;;;5089230;28;20051;-81
2022/04/23 03:56:53;;;;;;;0.20;0.20;;;8.90;99.90;;;;;;5072587;28;20123;-86
2022/04/23 03:59:23;;;;;;;0.10;0.10;;;8.80;99.90;;;;;;5106191;28;20040;-81
2022/04/23 04:01:53;;;;;;;0.10;0.10;;;8.80;99.90;;;;;;5072445;28;20447;-84
2022/04/23 04:04:19;;;;;;;0.17;0.17;;;8.70;99.90;;;;;;5105410;28;20037;-85
2022/04/23 04:06:46;;;;;;;0.10;0.10;;;8.70;99.90;;;;;;5101039;28;20040;-85
2022/04/23 04:09:13;;;;;;;0.10;0.10;;;8.70;99.90;;;;;;5068303;28;20033;-85
2022/04/23 04:14:25;;;;;;;0.20;0.20;;;8.70;99.90;;;;;;5091400;28;20531;-84
2022/04/23 04:16:52;;;;;;;0.10;0.10;;;8.60;99.90;;;;;;5095285;28;20113;-85
2022/04/23 04:19:19;;;;;;;0.10;0.10;;;8.60;99.90;;;;;;5092458;28;20044;-84
2022/04/23 04:21:46;;;;;;;0.10;0.10;;;8.60;99.90;;;;;;5108618;28;20060;-85
2022/04/23 04:24:14;;;;;;;0.10;0.10;;;8.60;99.90;;;;;;5093009;28;20037;-85
2022/04/23 04:26:41;;;;;;;0.10;0.10;;;8.50;99.90;;;;;;5071924;28;20047;-85
2022/04/23 04:29:08;;;;;;;0.10;0.10;;;8.50;99.90;;;;;;5072431;28;20033;-81
2022/04/23 04:31:51;;;;;;;0.10;0.10;;;8.50;99.90;;;;;;5088535;28;20482;-80
2022/04/23 04:34:28;;;;;;;0.10;0.10;;;8.50;99.90;;;;;;5072695;28;20045;-85
2022/04/23 04:37:12;;;;;;;0.17;0.17;;;8.50;99.90;;;;;;5099153;28;20489;-79
2022/04/23 04:39:41;;;;;;;0.10;0.10;;;8.50;99.90;;;;;;5099592;28;20123;-80
2022/04/23 04:42:09;;;;;;;0.10;0.10;;;8.50;99.90;;;;;;5110381;28;20044;-80
2022/04/23 04:44:36;;;;;;;0.10;0.10;;;8.50;99.90;;;;;;5111850;28;20044;-85
2022/04/23 04:47:04;;;;;;;0.10;0.10;;;8.50;99.90;;;;;;5087145;28;20047;-85
2022/04/23 04:49:31;;;;;;;0.10;0.10;;;8.50;99.90;;;;;;5086003;28;20071;-84
2022/04/23 04:51:58;;;;;;;0.10;0.10;;;8.50;99.90;;;;;;5104003;28;20067;-85
2022/04/23 04:54:25;;;;;;;0.10;0.10;;;8.40;99.90;;;;;;5112836;28;20590;-80
2022/04/23 04:56:52;;;;;;;0.10;0.10;;;8.40;99.90;;;;;;5106179;28;20079;-85
2022/04/23 04:59:20;;;;;;;0.10;0.10;;;8.40;99.90;;;;;;5100690;28;20040;-80
2022/04/23 05:01:51;;;;;;;0.52;0.38;;;8.40;99.90;;;;;;5099912;28;20040;-84
2022/04/23 05:04:19;;;;;;;0.10;0.10;;;8.40;99.90;;;;;;5095425;28;20032;-85
2022/04/23 05:06:46;;;;;;;0.20;0.20;;;8.40;99.90;;;;;;5095319;28;20386;-80
2022/04/23 05:09:13;;;;;;;0.20;0.20;;;8.30;99.90;;;;;;5071365;28;20040;-85
2022/04/23 05:11:40;;;;;;;0.10;0.10;;;8.40;99.90;;;;;;5128110;28;20538;-80
2022/04/23 05:14:06;;;;;;;0.10;0.10;;;8.40;99.90;;;;;;5111526;28;20147;-80
2022/04/23 05:16:33;;;;;;;0.10;0.10;;;8.40;99.90;;;;;;5094698;28;20040;-80
2022/04/23 05:19:00;;;;;;;0.10;0.10;;;8.50;99.90;;;;;;5111841;28;20036;-79
2022/04/23 05:21:26;;;;;;;0.10;0.10;;;8.50;99.90;;;;;;5095153;28;20151;-85
2022/04/23 05:23:53;;;;;;;0.10;0.10;;;8.50;99.90;;;;;;5110997;28;20471;-84
2022/04/23 05:26:20;;;;;;;0.30;0.30;;;8.60;99.90;;;;;;5127427;28;20075;-85
2022/04/23 05:28:47;;;;;;;0.10;0.10;;;8.60;99.90;;;;;;5102029;28;20037;-85
2022/04/23 05:31:13;;;;;;;0.20;0.20;;;8.80;99.90;;;;;;5108184;28;20452;-80
2022/04/23 05:33:40;;;;;;;0.10;0.10;;;8.60;99.90;;;;;;5074344;28;20049;-84
2022/04/23 05:36:07;;;;;;;0.10;0.10;;;8.70;99.90;;;;;;5074663;28;20040;-85
2022/04/23 05:38:37;;;;;;;0.10;0.10;;;8.70;99.90;;;;;;5063116;28;20117;-84
2022/04/23 05:41:04;;;;;;;0.10;0.10;;;8.70;99.90;;;;;;5083437;28;20040;-83
2022/04/23 05:43:32;;;;;;;0.10;0.10;;;8.80;99.90;;;;;;5061112;28;20412;-84
2022/04/23 05:46:00;;;;;;;0.20;0.20;;;8.90;99.90;;;;;;5093757;28;20045;-80
2022/04/23 05:48:27;;;;;;;0.17;0.17;;;8.80;99.90;;;;;;5093496;28;20120;-81
2022/04/23 05:50:54;;;;;;;0.10;0.10;;;8.90;99.90;;;;;;5074011;28;20032;-85
2022/04/23 05:53:21;;;;;;;0.10;0.10;;;9.30;99.90;;;;;;5090949;28;20045;-81
2022/04/23 05:55:47;;;;;;;0.13;0.13;;;9.00;99.90;;;;;;5074037;28;20386;-86
2022/04/23 05:58:14;;;;;;;0.10;0.10;;;9.00;99.90;;;;;;5091178;28;20044;-81
2022/04/23 06:00:41;;;;;;;0.10;0.10;;;9.00;99.90;;;;;;5073875;28;20123;-86
2022/04/23 06:03:07;;;;;;;0.20;0.20;;;9.00;99.90;;;;;;5074057;28;20090;-86
2022/04/23 06:05:34;;;;;;;0.10;0.10;;;9.10;99.90;;;;;;5073933;28;20102;-81
2022/04/23 06:08:01;;;;;;;0.55;0.20;;;9.20;99.90;;;;;;5073515;28;20033;-86
2022/04/23 06:10:28;;;;;;;0.10;0.10;;;9.20;99.90;;;;;;5073840;28;20037;-81
2022/04/23 06:12:54;;;;;;;0.10;0.10;;;9.30;99.90;;;;;;5073314;28;20076;-81
2022/04/23 06:15:21;;;;;;;0.10;0.10;;;9.30;99.90;;;;;;5090619;28;20046;-86
2022/04/23 06:17:48;;;;;;;0.10;0.10;;;9.30;99.90;;;;;;5052739;28;20053;-83
2022/04/23 06:20:15;;;;;;;0.10;0.10;;;9.40;99.90;;;;;;5053911;28;20087;-83
2022/04/23 06:22:42;;;;;;;0.10;0.10;;;9.40;99.90;;;;;;5087119;28;20459;-88
2022/04/23 06:25:09;;;;;;;0.10;0.10;;;9.50;99.90;;;;;;5073556;28;20097;-88
2022/04/23 06:27:38;;;;;;;0.15;0.15;;;9.50;99.90;;;;;;5090258;28;20100;-83
2022/04/23 06:30:09;;;;;;;0.10;0.10;;;9.50;99.90;;;;;;5057144;28;20036;-83
2022/04/23 06:32:39;;;;;;;0.10;0.10;;;9.60;99.90;;;;;;5074086;28;20094;-82
2022/04/23 06:35:07;;;;;;;0.10;0.10;;;9.70;99.90;;;;;;5076132;28;20502;-82
2022/04/23 06:37:39;;;;;;;0.17;0.17;;;9.70;99.90;;;;;;5054086;28;20498;-81
2022/04/23 06:40:08;;;;;;;0.10;0.10;;;9.80;99.90;;;;;;5070614;28;20051;-87
2022/04/23 06:42:35;;;;;;;0.10;0.10;;;9.90;99.90;;;;;;5053958;28;20044;-83
2022/04/23 06:45:01;;;;;;;0.10;0.10;;;10.00;99.90;;;;;;5053740;28;20052;-88
2022/04/23 06:47:28;;;;;;;0.10;0.10;;;9.90;99.90;;;;;;5070867;28;20482;-82
2022/04/23 06:49:58;;;;;;;0.10;0.10;;;10.00;99.90;;;;;;5067658;28;20046;-87
2022/04/23 06:52:28;;;;;;;0.20;0.20;;;10.10;99.90;;;;;;5090955;28;20466;-82
2022/04/23 06:54:55;;;;;;;0.10;0.10;;;10.10;99.90;;;;;;5090543;28;20086;-88
2022/04/23 06:57:25;;;;;;;0.10;0.10;;;10.30;99.90;;;;;;5074207;28;20045;-87
2022/04/23 06:59:53;;;;;;;0.10;0.10;;;10.30;99.90;;;;;;5089548;28;20135;-87
2022/04/23 07:02:21;;;;;;;0.10;0.10;;;10.40;99.90;;;;;;5089981;28;20051;-82
2022/04/23 07:04:48;;;;;;;0.10;0.10;;;10.50;99.90;;;;;;5089536;28;20044;-83
2022/04/23 07:07:14;;;;;;;0.10;0.10;;;10.70;99.90;;;;;;5090542;28;20032;-86
2022/04/23 07:09:41;;;;;;;0.10;0.10;;;10.80;99.90;;;;;;5056748;28;20041;-82
2022/04/23 07:12:08;;;;;;;0.10;0.10;;;10.90;99.90;;;;;;5053295;28;20041;-82
2022/04/23 07:14:35;;;;;;;0.10;0.10;;;11.00;99.90;;;;;;5081205;28;20045;-85
2022/04/23 07:17:02;;;;;;;0.10;0.10;;;11.00;99.90;;;;;;5089105;28;20511;-83
2022/04/23 07:19:30;;;;;;;0.20;0.20;;;11.20;99.90;;;;;;5072584;28;20051;-83
2022/04/23 07:21:58;;;;;;;0.10;0.10;;;11.30;99.90;;;;;;5072745;28;20044;-83
2022/04/23 07:24:25;;;;;;;0.10;0.10;;;11.40;99.90;;;;;;5072620;28;20036;-83
2022/04/23 07:26:51;;;;;;;0.10;0.10;;;11.50;99.90;;;;;;5088492;28;20047;-83
2022/04/23 07:29:18;;;;;;;0.10;0.10;;;11.50;99.90;;;;;;5089508;28;20043;-82
2022/04/23 07:31:45;;;;;;;0.10;0.10;;;11.60;99.90;;;;;;5089354;28;20247;-83
2022/04/23 07:39:44;;;;;;;0.10;0.10;;;11.90;99.90;;;;;;5091424;28;20137;-83
2022/04/23 07:42:11;;;;;;;0.10;0.10;;;12.00;99.90;;;;;;5088533;28;20041;-83
2022/04/23 07:44:38;;;;;;;0.10;0.10;;;12.10;99.90;;;;;;5088985;28;20532;-83
2022/04/23 07:47:05;;;;;;;0.10;0.10;;;12.30;99.90;;;;;;5088834;28;20044;-83
2022/04/23 07:49:32;;;;;;;0.40;0.28;;;12.30;99.90;;;;;;5074604;28;20173;-83
2022/04/23 07:51:59;;;;;;;0.10;0.10;;;12.40;99.90;;;;;;5076087;28;20048;-83
2022/04/23 07:54:26;;;;;;;0.10;0.10;;;12.50;99.90;;;;;;5076597;28;20041;-84
2022/04/23 07:56:53;;;;;;;0.10;0.10;;;12.60;99.90;;;;;;5075677;28;20051;-83
2022/04/23 07:59:20;;;;;;;0.10;0.10;;;12.70;99.90;;;;;;5059679;28;20036;-84
2022/04/23 08:01:47;;;;;;;0.10;0.10;;;12.80;99.90;;;;;;5076516;28;20071;-84
2022/04/23 08:04:14;;;;;;;0.03;0.03;;;12.90;99.90;;;;;;5092235;28;20036;-83
2022/04/23 08:06:40;;;;;;;0.10;0.10;;;12.90;99.90;;;;;;5059865;28;20040;-83
2022/04/23 08:09:07;;;;;;;0.10;0.10;;;12.90;99.90;;;;;;5092400;28;20481;-82
2022/04/23 08:11:34;;;;;;;0.00;0.00;;;13.10;99.90;;;;;;5092534;28;20093;-82
2022/04/23 08:14:01;;;;;;;0.08;0.08;;;13.10;99.90;;;;;;5092228;28;20047;-83
2022/04/23 08:16:28;;;;;;;0.10;0.10;;;13.30;99.90;;;;;;5072663;28;20079;-83
2022/04/23 08:18:55;;;;;;;0.00;0.00;;;13.30;99.90;;;;;;5073419;28;20064;-84
2022/04/23 08:21:22;;;;;;;0.10;0.10;;;13.40;99.90;;;;;;5092736;28;20083;-83
2022/04/23 08:23:49;;;;;;;0.05;0.05;;;13.50;99.90;;;;;;5075526;28;20040;-83
2022/04/23 08:26:17;;;;;;;0.10;0.10;;;13.70;99.90;;;;;;5075437;28;20151;-83
2022/04/23 08:31:29;;;;;;;0.37;0.20;;;13.80;99.90;;;;;;5098968;28;20032;-83
2022/04/23 08:33:59;;;;;;;0.10;0.10;;;13.90;99.90;;;;;;5074572;28;20382;-83
2022/04/23 08:36:27;;;;;;;0.10;0.10;;;14.00;99.90;;;;;;5074666;28;20050;-84
2022/04/23 08:38:56;;;;;;;0.20;0.20;;;14.10;99.90;;;;;;5090669;28;20033;-83
2022/04/23 08:41:28;;;;;;;0.20;0.20;;;14.10;99.90;;;;;;5075384;28;20037;-84
2022/04/23 08:43:56;;;;;;;0.10;0.10;;;14.20;99.90;;;;;;5087649;28;20052;-85
2022/04/23 08:46:25;;;;;;;0.03;0.03;;;14.10;99.90;;;;;;5058617;28;20036;-85
2022/04/23 08:49:03;;;;;;;0.10;0.10;;;14.20;99.90;;;;;;5088668;28;20029;-83
2022/04/23 08:51:33;;;;;;;0.10;0.10;;;14.20;99.90;;;;;;5081373;28;20483;-84
2022/04/23 08:54:06;;;;;;;0.10;0.10;;;14.40;99.90;;;;;;5091146;28;20040;-83
2022/04/23 08:56:33;;;;;;;0.30;0.30;;;14.40;99.90;;;;;;5088478;28;20119;-82
2022/04/23 08:59:00;;;;;;;0.10;0.10;;;14.50;99.90;;;;;;5063399;28;20033;-82
2022/04/23 09:01:32;;;;;;;0.10;0.10;;;14.60;99.90;;;;;;5103531;28;20459;-82
2022/04/23 09:04:01;;;;;;;0.52;0.10;;;14.70;99.90;;;;;;5108013;28;20087;-82
2022/04/23 09:06:42;;;;;;;0.00;0.00;;;14.70;98.70;;;;;;5074914;28;20036;-83
2022/04/23 09:09:14;;;;;;;0.20;0.20;;;14.90;99.10;;;;;;5090819;28;20037;-83
2022/04/23 09:11:44;;;;;;;0.05;0.05;;;14.90;99.20;;;;;;5090997;28;20037;-83
2022/04/23 09:14:31;;;;;;;0.10;0.10;;;14.80;97.90;;;;;;5091088;28;20822;-83
2022/04/23 09:25:35;;;;;;;;;;;15.10;97.40;;;;;;5079898;28;20835;-83
2022/04/23 09:28:30;;;;;;;0.00;0.00;;;15.20;97.40;;;;;;5073809;28;20031;-83
2022/04/23 09:30:59;;;;;;;0.00;0.00;;;15.20;97.50;;;;;;5088435;28;20053;-83
2022/04/23 09:33:43;;;;;;;0.43;0.10;;;15.30;98.00;;;;;;5087552;28;20102;-83
2022/04/23 09:36:10;;;;;;;0.47;0.20;;;15.30;97.30;;;;;;5071754;28;20048;-83
2022/04/23 09:38:36;;;;;;;0.52;0.30;;;15.40;96.80;;;;;;5073990;28;20131;-83
2022/04/23 09:41:15;;;;;;;0.10;0.10;;;15.30;97.40;;;;;;5073671;28;20060;-83
2022/04/23 09:43:44;;;;;;;0.30;0.20;;;15.40;97.20;;;;;;5089015;28;20052;-83
2022/04/23 09:46:11;;;;;;;0.20;0.20;;;15.50;97.00;;;;;;5069628;28;20539;-84
2022/04/23 09:48:40;;;;;;;0.32;0.10;;;15.50;97.00;;;;;;5124228;28;20401;-84
2022/04/23 09:51:21;;;;;;;0.00;0.00;;;15.60;96.50;;;;;;5106798;28;20044;-84
2022/04/23 09:53:50;;;;;;;0.10;0.10;;;15.60;96.00;;;;;;5084285;28;20048;-83
2022/04/23 09:56:19;;;;;;;0.00;0.00;;;15.70;95.70;;;;;;5074411;28;20123;-84
2022/04/23 09:58:47;;;;;;;0.30;0.30;;;15.80;96.20;;;;;;5073880;28;20094;-83
2022/04/23 10:01:14;;;;;;;0.10;0.10;;;15.90;96.60;;;;;;5089827;28;20079;-84
2022/04/23 10:03:45;;;;;;;0.00;0.00;;;16.00;94.50;;;;;;5089826;28;20064;-83
2022/04/23 10:06:12;;;;;;;0.10;0.10;;;15.90;93.70;;;;;;5089870;28;20123;-84
2022/04/23 10:08:43;;;;;;;0.10;0.10;;;15.90;94.80;;;;;;5089988;28;20067;-84
2022/04/23 10:11:24;;;;;;;0.10;0.10;;;16.00;94.70;;;;;;5090030;28;20036;-84
2022/04/23 10:14:05;;;;;;;0.05;0.05;;;16.20;95.20;;;;;;5089792;28;20143;-83
2022/04/23 10:16:33;;;;;;;0.10;0.10;;;16.30;95.00;;;;;;5072541;28;20083;-84
2022/04/23 10:19:01;;;;;;;0.15;0.10;;;16.30;93.60;;;;;;5068116;28;20068;-83
2022/04/23 10:21:42;;;;;;;0.10;0.10;;;16.40;93.60;;;;;;5087825;28;20512;-82
2022/04/23 10:24:25;;;;;;;0.30;0.30;;;16.40;93.00;;;;;;5105689;28;20044;-82
2022/04/23 10:26:59;;;;;;;0.25;0.25;;;16.40;93.10;;;;;;5089887;28;20051;-83
2022/04/23 10:29:28;;;;;;;0.20;0.20;;;16.40;94.40;;;;;;5069578;28;20090;-83
2022/04/23 10:32:13;;;;;;;0.10;0.10;;;16.40;93.50;;;;;;5105310;28;20121;-84
2022/04/23 10:34:41;;;;;;;0.25;0.25;;;16.50;92.40;;;;;;5089913;28;20048;-85
2022/04/23 10:37:22;;;;;;;0.77;0.25;;;16.60;91.60;;;;;;5088710;28;20052;-85
2022/04/23 10:39:52;;;;;;;0.08;0.08;;;16.60;91.30;;;;;;5069436;28;20485;-82
2022/04/23 10:42:23;;;;;;;0.25;0.25;;;16.70;91.20;;;;;;5086958;28;20040;-83
2022/04/23 10:44:54;;;;;;;0.15;0.15;;;16.70;90.50;;;;;;5089814;28;20040;-83
2022/04/23 10:47:32;;;;;;;0.13;0.13;;;16.90;91.70;;;;;;5073267;28;20040;-84
2022/04/23 10:50:24;;;;;;;0.20;0.20;;;17.00;90.40;;;;;;5089715;28;20123;-84
2022/04/23 10:52:55;;;;;;;0.10;0.10;;;17.00;90.30;;;;;;5089354;28;20485;-83
2022/04/23 10:55:22;;;;;;;0.30;0.20;;;17.00;90.90;;;;;;5073777;28;20051;-84
2022/04/23 10:57:53;;;;;;;0.30;0.30;;;17.00;90.30;;;;;;5089526;28;20036;-79
2022/04/23 11:00:21;;;;;;;0.20;0.20;;;17.10;90.30;;;;;;5072257;28;20123;-82
2022/04/23 11:02:48;;;;;;;0.40;0.25;;;17.10;89.10;;;;;;5089599;28;20037;-85
2022/04/23 11:14:26;;;;;;;0.30;0.22;;;17.20;88.30;;;;;;5105611;28;20110;-86
2022/04/23 11:16:55;;;;;;;0.13;0.13;;;17.20;86.70;;;;;;5089522;28;20094;-89
2022/04/23 11:19:22;;;;;;;0.13;0.10;;;17.30;86.20;;;;;;5073341;28;20080;-89
2022/04/23 11:21:49;;;;;;;0.10;0.10;;;17.20;87.10;;;;;;5089744;28;20409;-86
2022/04/23 11:24:16;;;;;;;1.38;0.28;;;17.30;84.90;;;;;;5075024;28;20063;-87
2022/04/23 11:26:47;;;;;;;0.20;0.20;;;17.30;85.10;;;;;;5094250;28;20033;-87
2022/04/23 11:29:15;;;;;;;2.05;0.50;;;17.40;84.70;;;;;;5094125;28;20040;-82
2022/04/23 11:31:50;;;;;;;0.40;0.30;;;17.40;84.00;;;;;;5077265;28;20040;-88
2022/04/23 11:34:17;;;;;;;0.68;0.45;;;17.40;83.20;;;;;;5109864;28;20131;-82
2022/04/23 11:36:44;;;;;;;0.35;0.35;;;17.40;84.00;;;;;;5093571;28;20068;-88
2022/04/23 11:39:13;;;;;;;0.40;0.35;;;17.50;83.10;;;;;;5093659;28;20040;-82
2022/04/23 11:41:42;;;;;;;0.35;0.30;;;17.40;82.30;;;;;;5093399;28;20040;-88
2022/04/23 11:47:09;;;;;;;1.20;0.55;;;17.50;82.80;;;;;;5110375;28;20146;-82
2022/04/23 11:49:36;;;;;;;0.35;0.28;;;17.50;81.90;;;;;;5076913;28;20758;-82
2022/04/23 11:52:13;;;;;;;0.32;0.32;;;17.50;80.50;;;;;;5076444;28;20047;-87
2022/04/23 11:54:42;;;;;;;0.57;0.20;;;17.50;81.40;;;;;;5092997;28;20559;-88
2022/04/23 11:57:13;;;;;;;1.30;0.82;;;17.50;80.10;;;;;;5093505;28;20040;-82
2022/04/23 11:59:45;;;;;;;0.10;0.10;;;17.60;81.00;;;;;;5076393;28;20044;-87
2022/04/23 12:02:28;;;;;;;0.15;0.15;;;17.70;80.50;;;;;;5076594;28;20040;-88
2022/04/23 12:05:03;;;;;;;0.00;0.00;;;17.80;81.30;;;;;;5109839;28;20030;-82
2022/04/23 12:07:33;;;;;;;0.28;0.17;;;17.80;78.90;;;;;;5092214;28;20508;-88
2022/04/23 12:10:01;;;;;;;1.00;0.25;;;17.80;78.20;;;;;;5092693;28;20486;-81
2022/04/23 12:12:30;;;;;;;0.32;0.32;;;17.90;78.90;;;;;;5060062;28;20040;-82
2022/04/23 12:15:00;;;;;;;0.45;0.40;;;17.80;77.60;;;;;;5093102;28;20040;-89
2022/04/23 12:17:29;;;;;;;0.57;0.40;;;17.80;76.40;;;;;;5092743;28;20081;-82
2022/04/23 12:20:08;;;;;;;1.33;0.70;;;17.80;75.90;;;;;;5075593;28;20051;-82
2022/04/23 12:22:34;;;;;;;0.43;0.28;;;17.80;73.80;;;;;;5092049;28;20087;-82
2022/04/23 12:25:18;;;;;;;0.98;0.43;;;17.90;75.80;;;;;;5092833;28;20076;-82
2022/04/23 12:40:43;;;;;;;0.25;0.17;;;17.90;75.30;;;;;;5092389;28;20072;-88
2022/04/23 12:42:04;;;;;;;0.10;0.10;;;18.00;74.00;;;;;;5109250;28;20045;-89
2022/04/23 12:44:37;;;;;;;0.32;0.20;;;17.90;73.00;;;;;;5091659;28;20084;-82
2022/04/23 12:47:05;;;;;;;1.13;0.45;;;17.80;70.20;;;;;;5075997;28;20155;-82
2022/04/23 12:49:51;;;;;;;0.88;0.40;;;17.90;71.00;;;;;;5092489;28;20037;-82
2022/04/23 12:52:37;;;;;;;0.55;0.40;;;17.90;69.60;;;;;;5108022;28;20764;-89
2022/04/23 12:55:32;;;;;;;0.10;0.10;;;17.80;70.20;;;;;;5109532;28;20098;-82
2022/04/23 12:58:02;;;;;;;0.45;0.32;;;17.70;69.20;;;;;;5093016;28;20042;-89
2022/04/23 13:00:36;;;;;;;0.30;0.30;;;17.70;68.50;;;;;;5091581;28;20052;-89
2022/04/23 13:05:46;;;;;;;0.08;0.08;;;17.90;71.60;;;;;;5109884;28;20040;-88
2022/04/23 13:11:24;;;;;;;0.75;0.55;;;17.90;68.20;;;;;;5081661;28;20489;-89
2022/04/23 13:13:44;;;;;;;0.17;0.17;;;17.90;69.00;;;;;;5082105;28;20098;-82
2022/04/23 13:16:11;;;;;;;0.30;0.17;;;17.90;69.10;;;;;;5058516;28;20040;-87
2022/04/23 13:18:38;;;;;;;0.10;0.10;;;17.90;69.70;;;;;;5092151;28;20063;-87
2022/04/23 13:21:05;;;;;;;0.63;0.32;;;17.90;68.40;;;;;;5074939;28;20591;-89
2022/04/23 13:23:32;;;;;;;0.45;0.32;;;18.00;71.20;;;;;;5075604;28;20131;-81
2022/04/23 13:25:59;;;;;;;0.35;0.30;;;18.00;68.90;;;;;;5092153;28;20421;-82
2022/04/23 13:28:26;;;;;;;0.45;0.28;;;18.00;69.80;;;;;;5057203;28;20040;-82
2022/04/23 13:30:53;;;;;;;0.20;0.08;;;18.00;69.50;;;;;;5069622;28;20404;-80
2022/04/23 13:33:19;;;;;;;0.50;0.38;;;18.00;67.00;;;;;;5105790;28;20072;-83
2022/04/23 13:35:46;;;;;;;0.30;0.30;;;17.90;64.80;;;;;;5074195;28;20055;-89
2022/04/23 13:38:16;;;;;;;0.50;0.30;;;17.90;67.60;;;;;;5074789;28;20124;-81
2022/04/23 13:40:48;;;;;;;0.10;0.10;;;17.90;67.70;;;;;;5091826;28;20040;-88
2022/04/23 13:43:16;;;;;;;0.20;0.17;;;17.80;66.40;;;;;;5090896;28;20049;-88
2022/04/23 13:45:44;;;;;;;0.50;0.30;;;17.80;66.70;;;;;;5075122;28;20464;-82
2022/04/23 13:48:11;;;;;;;0.43;0.30;;;17.80;67.00;;;;;;5058913;28;20046;-87
2022/04/23 13:50:37;;;;;;;0.15;0.13;;;17.80;66.20;;;;;;5075474;28;20468;-89